Time;durP1;ratioP1;P1;durP2;ratioP2;P2;SDS_P1;SDS_P2;PMS_P1;PMS_P2;Temp;Humidity;BMP_temperature;BMP_pressure;BME280_temperature;BME280_humidity;BME280_pressure;Samples;Min_cycle;Max_cycle;Signal;HPM_P1;HPM_P2
2024/01/09 00:00:22;;;;;;;9.57;4.13;;;-3.10;99.90;;;;;;4144188;28;20457;-79
2024/01/09 00:02:23;;;;;;;;;;;-3.10;99.90;;;;;;4131446;28;20081;-78
2024/01/09 00:04:23;;;;;;;9.68;3.97;;;-3.10;99.90;;;;;;4145297;28;19909;-78
2024/01/09 00:06:24;;;;;;;12.68;4.90;;;-3.10;99.90;;;;;;4128804;28;20084;-78
2024/01/09 00:08:25;;;;;;;8.90;3.90;;;-3.10;99.90;;;;;;4132603;28;20160;-77
2024/01/09 00:10:26;;;;;;;7.40;3.80;;;-3.10;99.90;;;;;;4143749;28;20048;-78
2024/01/09 00:12:26;;;;;;;8.88;4.00;;;-3.10;99.90;;;;;;4137638;28;20133;-78
2024/01/09 00:14:27;;;;;;;7.82;3.97;;;-3.10;99.90;;;;;;4145713;28;20057;-77
2024/01/09 00:16:27;;;;;;;8.85;3.55;;;-3.10;99.90;;;;;;4131487;28;20030;-78
2024/01/09 00:18:28;;;;;;;7.68;4.13;;;-3.10;99.90;;;;;;4132582;28;20041;-77
2024/01/09 00:20:28;;;;;;;15.57;4.40;;;-3.10;99.90;;;;;;4136330;28;20034;-78
2024/01/09 00:22:29;;;;;;;7.50;3.58;;;-3.10;99.90;;;;;;4146665;28;20042;-78
2024/01/09 00:24:30;;;;;;;9.85;3.95;;;-3.10;99.90;;;;;;4145898;28;20096;-79
2024/01/09 00:26:30;;;;;;;9.10;3.90;;;-3.10;99.90;;;;;;4133343;28;20046;-77
2024/01/09 00:28:31;;;;;;;7.70;3.70;;;-3.10;99.90;;;;;;4134607;28;20041;-77
2024/01/09 00:30:31;;;;;;;7.68;3.83;;;-3.20;99.90;;;;;;4144512;28;20033;-78
2024/01/09 00:32:32;;;;;;;8.77;4.28;;;-3.20;99.90;;;;;;4146592;28;20033;-76
2024/01/09 00:34:32;;;;;;;10.43;4.68;;;-3.20;99.90;;;;;;4147685;28;20044;-77
2024/01/09 00:36:33;;;;;;;10.38;4.68;;;-3.20;99.90;;;;;;4145756;28;20037;-77
2024/01/09 00:38:35;;;;;;;11.38;4.18;;;-3.30;99.90;;;;;;4145055;28;20044;-76
2024/01/09 00:40:35;;;;;;;8.82;4.35;;;-3.30;99.90;;;;;;4145925;28;20034;-76
2024/01/09 00:42:36;;;;;;;8.27;3.90;;;-3.30;99.90;;;;;;4143906;28;20375;-77
2024/01/09 00:44:37;;;;;;;9.80;4.35;;;-3.30;99.90;;;;;;4140377;28;20472;-77
2024/01/09 00:46:37;;;;;;;8.70;4.38;;;-3.30;99.90;;;;;;4132083;28;20061;-77
2024/01/09 00:48:38;;;;;;;8.70;3.95;;;-3.30;99.90;;;;;;4133556;28;20076;-77
2024/01/09 00:50:38;;;;;;;11.60;4.10;;;-3.30;99.90;;;;;;4136427;28;20042;-76
2024/01/09 00:52:39;;;;;;;7.90;4.28;;;-3.30;99.90;;;;;;4128203;28;20022;-67
2024/01/09 00:54:42;;;;;;;11.75;4.07;;;-3.40;99.90;;;;;;4139911;28;20445;-67
2024/01/09 00:56:43;;;;;;;11.38;4.30;;;-3.40;99.90;;;;;;4143259;28;20116;-67
2024/01/09 00:58:43;;;;;;;12.90;4.05;;;-3.40;99.90;;;;;;4142774;28;20034;-67
2024/01/09 01:00:44;;;;;;;9.07;3.92;;;-3.40;99.90;;;;;;4146329;28;20057;-67
2024/01/09 01:02:44;;;;;;;7.97;4.05;;;-3.40;99.90;;;;;;4144091;28;20471;-67
2024/01/09 01:04:46;;;;;;;7.97;3.55;;;-3.40;99.90;;;;;;4145418;28;20034;-67
2024/01/09 01:06:46;;;;;;;7.53;3.75;;;-3.30;99.90;;;;;;4129282;28;20426;-67
2024/01/09 01:08:47;;;;;;;6.85;3.60;;;-3.40;99.90;;;;;;4137306;28;20048;-68
2024/01/09 01:10:48;;;;;;;8.75;4.22;;;-3.30;99.90;;;;;;4129353;28;20031;-67
2024/01/09 01:12:49;;;;;;;8.60;4.13;;;-3.40;99.90;;;;;;4133525;28;20034;-68
2024/01/09 01:14:49;;;;;;;6.57;3.60;;;-3.40;99.90;;;;;;4144757;28;20112;-67
2024/01/09 01:16:50;;;;;;;9.20;3.92;;;-3.30;99.90;;;;;;4146382;28;20050;-68
2024/01/09 01:18:50;;;;;;;9.07;3.63;;;-3.40;99.90;;;;;;4142363;28;20042;-67
2024/01/09 01:20:51;;;;;;;9.18;3.80;;;-3.40;99.90;;;;;;4128625;28;20541;-68
2024/01/09 01:22:51;;;;;;;6.93;3.67;;;-3.40;99.90;;;;;;4128975;28;20038;-67
2024/01/09 01:24:52;;;;;;;11.65;3.25;;;-3.40;99.90;;;;;;4138919;28;20038;-68
2024/01/09 01:26:53;;;;;;;13.57;4.55;;;-3.40;99.90;;;;;;4142023;28;20048;-68
2024/01/09 01:28:53;;;;;;;10.27;4.38;;;-3.40;99.90;;;;;;4141587;28;20041;-68
2024/01/09 01:30:54;;;;;;;8.63;3.92;;;-3.40;99.90;;;;;;4142102;28;20030;-68
2024/01/09 01:32:54;;;;;;;11.95;5.03;;;-3.40;99.90;;;;;;4127310;28;20364;-67
2024/01/09 01:34:55;;;;;;;11.23;4.25;;;-3.40;99.90;;;;;;4127504;28;20026;-67
2024/01/09 01:36:55;;;;;;;9.65;3.95;;;-3.40;99.90;;;;;;4143552;28;20045;-67
2024/01/09 01:38:56;;;;;;;9.75;3.90;;;-3.50;99.90;;;;;;4143364;28;20046;-67
2024/01/09 01:40:57;;;;;;;9.95;3.67;;;-3.40;99.90;;;;;;4132325;28;20049;-67
2024/01/09 01:42:57;;;;;;;9.93;4.03;;;-3.40;99.90;;;;;;4129405;28;20042;-67
2024/01/09 01:44:58;;;;;;;7.45;3.67;;;-3.50;99.90;;;;;;4130166;28;20042;-67
2024/01/09 01:46:59;;;;;;;9.70;3.95;;;-3.50;99.90;;;;;;4133572;28;20042;-67
2024/01/09 01:48:59;;;;;;;10.27;4.25;;;-3.50;99.90;;;;;;4133344;28;20124;-67
2024/01/09 01:51:01;;;;;;;8.93;4.07;;;-3.50;99.90;;;;;;4144257;28;20041;-67
2024/01/09 01:53:05;;;;;;;12.38;3.67;;;-3.60;99.90;;;;;;4145137;28;20038;-67
2024/01/09 01:55:09;;;;;;;8.90;3.50;;;-3.50;99.90;;;;;;4139791;28;20038;-65
2024/01/09 01:57:10;;;;;;;9.50;3.83;;;-3.50;99.90;;;;;;4128676;28;20034;-66
2024/01/09 01:59:15;;;;;;;9.80;3.55;;;-3.50;99.90;;;;;;4137755;28;20031;-68
2024/01/09 02:01:16;;;;;;;8.73;3.97;;;-3.50;99.90;;;;;;4138370;28;20491;-73
2024/01/09 02:03:17;;;;;;;10.40;4.15;;;-3.50;99.90;;;;;;4144957;28;20041;-73
2024/01/09 02:05:18;;;;;;;10.07;3.67;;;-3.60;99.90;;;;;;4140357;28;20038;-73
2024/01/09 02:07:23;;;;;;;11.45;4.50;;;-3.60;99.90;;;;;;4123834;28;20038;-72
2024/01/09 02:09:24;;;;;;;11.73;4.43;;;-3.50;99.90;;;;;;4141361;28;20036;-72
2024/01/09 02:11:25;;;;;;;8.77;4.10;;;-3.60;99.90;;;;;;4140020;28;20022;-71
2024/01/09 02:13:26;;;;;;;9.88;4.30;;;-3.60;99.90;;;;;;4144881;28;20091;-72
2024/01/09 02:15:26;;;;;;;10.15;3.47;;;-3.60;99.90;;;;;;4128955;28;20121;-73
2024/01/09 02:17:27;;;;;;;7.13;3.53;;;-3.60;99.90;;;;;;4150381;28;20422;-73
2024/01/09 02:19:27;;;;;;;9.77;4.10;;;-3.60;99.90;;;;;;4144581;28;20037;-72
2024/01/09 02:21:29;;;;;;;9.07;3.92;;;-3.60;99.90;;;;;;4143482;28;20034;-74
2024/01/09 02:23:29;;;;;;;6.50;3.30;;;-3.60;99.90;;;;;;4143873;28;20026;-72
2024/01/09 02:25:30;;;;;;;7.93;3.85;;;-3.60;99.90;;;;;;4150757;28;20036;-72
2024/01/09 02:27:58;;;;;;;10.48;3.92;;;-3.50;99.90;;;;;;4142505;28;20034;-72
2024/01/09 02:29:59;;;;;;;8.57;3.67;;;-3.60;99.90;;;;;;4128489;28;20038;-73
2024/01/09 02:32:02;;;;;;;7.80;3.88;;;-3.60;99.90;;;;;;4132716;28;20034;-73
2024/01/09 02:34:04;;;;;;;5.80;3.08;;;-3.60;99.90;;;;;;4125387;28;20403;-73
2024/01/09 02:36:05;;;;;;;;;;;-3.50;99.90;;;;;;4141938;28;20034;-72
2024/01/09 02:38:06;;;;;;;7.97;3.70;;;-3.60;99.90;;;;;;4144929;28;19996;-72
2024/01/09 02:40:07;;;;;;;10.30;4.07;;;-3.60;99.90;;;;;;4141433;28;20038;-71
2024/01/09 02:42:08;;;;;;;12.60;4.40;;;-3.60;99.90;;;;;;4129225;28;20116;-72
2024/01/09 02:44:09;;;;;;;9.85;4.07;;;-3.70;99.90;;;;;;4129983;28;20035;-72
2024/01/09 02:46:09;;;;;;;11.10;4.20;;;-3.70;99.90;;;;;;4141810;28;20367;-74
2024/01/09 02:48:10;;;;;;;9.20;3.90;;;-3.70;99.90;;;;;;4134851;28;20050;-72
2024/01/09 02:50:11;;;;;;;13.82;3.70;;;-3.70;99.90;;;;;;4138310;28;20232;-71
2024/01/09 02:52:11;;;;;;;10.63;3.95;;;-3.70;99.90;;;;;;4146156;28;20030;-72
2024/01/09 02:54:12;;;;;;;8.85;4.00;;;-3.60;99.90;;;;;;4132086;28;20379;-73
2024/01/09 02:56:13;;;;;;;10.02;4.25;;;-3.70;99.90;;;;;;4134105;28;20450;-72
2024/01/09 02:58:13;;;;;;;8.70;4.13;;;-3.70;99.90;;;;;;4143339;28;20037;-72
2024/01/09 03:00:14;;;;;;;11.13;4.18;;;-3.70;99.90;;;;;;4141944;28;20447;-72
2024/01/09 03:02:15;;;;;;;9.50;4.15;;;-3.70;99.90;;;;;;4134978;28;20058;-72
2024/01/09 03:04:15;;;;;;;11.50;3.72;;;-3.60;99.90;;;;;;4132051;28;20047;-72
2024/01/09 03:06:16;;;;;;;8.18;3.47;;;-3.70;99.90;;;;;;4143447;28;20042;-71
2024/01/09 03:08:16;;;;;;;10.23;3.83;;;-3.60;99.90;;;;;;4147919;28;20030;-72
2024/01/09 03:10:17;;;;;;;8.90;3.85;;;-3.60;99.90;;;;;;4146913;28;20490;-72
2024/01/09 03:12:17;;;;;;;11.70;4.80;;;-3.60;99.90;;;;;;4143537;28;20033;-74
2024/01/09 03:14:18;;;;;;;10.77;4.57;;;-3.60;99.90;;;;;;4148035;28;20356;-74
2024/01/09 03:16:19;;;;;;;11.07;4.03;;;-3.70;99.90;;;;;;4145332;28;20042;-74
2024/01/09 03:18:19;;;;;;;9.25;3.75;;;-3.70;99.90;;;;;;4131676;28;20125;-74
2024/01/09 03:20:20;;;;;;;7.53;3.53;;;-3.70;99.90;;;;;;4145574;28;20493;-71
2024/01/09 03:22:20;;;;;;;8.70;3.58;;;-3.60;99.90;;;;;;4147231;28;20041;-73
2024/01/09 03:24:21;;;;;;;9.30;4.22;;;-3.60;99.90;;;;;;4131587;28;20034;-73
2024/01/09 03:26:21;;;;;;;10.40;4.60;;;-3.60;99.90;;;;;;4139733;28;20427;-73
2024/01/09 03:28:22;;;;;;;11.63;3.85;;;-3.70;99.90;;;;;;4162348;28;20053;-73
2024/01/09 03:30:23;;;;;;;11.10;4.93;;;-3.70;99.90;;;;;;4147652;28;20030;-73
2024/01/09 03:32:24;;;;;;;14.20;4.25;;;-3.70;99.90;;;;;;4138104;28;20062;-74
2024/01/09 03:34:24;;;;;;;9.98;4.22;;;-3.70;99.90;;;;;;4139490;28;20037;-73
2024/01/09 03:36:26;;;;;;;11.60;4.05;;;-3.70;99.90;;;;;;4144850;28;20072;-69
2024/01/09 03:38:26;;;;;;;11.27;4.43;;;-3.70;99.90;;;;;;4146667;28;20076;-73
2024/01/09 03:40:27;;;;;;;13.27;4.13;;;-3.70;99.90;;;;;;4146476;28;20116;-73
2024/01/09 03:42:27;;;;;;;11.85;3.88;;;-3.80;99.90;;;;;;4147310;28;20085;-73
2024/01/09 03:44:28;;;;;;;9.70;4.30;;;-3.80;99.90;;;;;;4147491;28;20116;-74
2024/01/09 03:46:29;;;;;;;9.38;4.25;;;-3.80;99.90;;;;;;4146218;28;20156;-73
2024/01/09 03:48:29;;;;;;;9.63;4.22;;;-3.90;99.90;;;;;;4147049;28;20068;-73
2024/01/09 03:50:30;;;;;;;7.80;3.80;;;-3.80;99.90;;;;;;4145213;28;20042;-74
2024/01/09 03:52:30;;;;;;;8.75;3.83;;;-3.90;99.90;;;;;;4144201;28;20049;-74
2024/01/09 03:54:31;;;;;;;11.40;4.45;;;-3.90;99.90;;;;;;4138376;28;20395;-73
2024/01/09 03:56:31;;;;;;;9.25;4.88;;;-3.90;99.90;;;;;;4142139;28;20050;-74
2024/01/09 03:58:32;;;;;;;15.30;4.55;;;-3.90;99.90;;;;;;4140773;28;20041;-74
2024/01/09 04:00:33;;;;;;;15.98;5.03;;;-3.90;99.90;;;;;;4142368;28;20156;-74
2024/01/09 04:02:34;;;;;;;9.95;4.45;;;-3.90;99.90;;;;;;4139841;28;20030;-74
2024/01/09 04:04:37;;;;;;;12.35;4.45;;;-3.90;99.90;;;;;;4143471;28;20367;-74
2024/01/09 04:06:43;;;;;;;7.60;4.00;;;-3.90;99.90;;;;;;4141728;28;20042;-74
2024/01/09 04:08:43;;;;;;;12.30;4.57;;;-3.90;99.90;;;;;;4142859;28;20038;-74
2024/01/09 04:10:44;;;;;;;9.40;4.32;;;-3.90;99.90;;;;;;4145498;28;20121;-74
2024/01/09 04:12:45;;;;;;;7.30;4.10;;;-4.00;99.90;;;;;;4146657;28;20038;-74
2024/01/09 04:14:45;;;;;;;10.48;3.95;;;-4.00;99.90;;;;;;4145684;28;20510;-74
2024/01/09 04:16:48;;;;;;;12.45;4.28;;;-4.00;99.90;;;;;;4146276;28;20127;-73
2024/01/09 04:18:49;;;;;;;10.15;4.45;;;-4.00;99.90;;;;;;4146643;28;20075;-73
2024/01/09 04:20:50;;;;;;;8.90;4.00;;;-4.00;99.90;;;;;;4145226;28;20212;-73
2024/01/09 04:22:50;;;;;;;12.68;4.78;;;-4.00;99.90;;;;;;4145328;28;20049;-68
2024/01/09 04:24:51;;;;;;;15.80;4.95;;;-4.00;99.90;;;;;;4144157;28;20045;-68
2024/01/09 04:26:51;;;;;;;9.27;4.15;;;-4.00;99.90;;;;;;4145435;28;20100;-68
2024/01/09 04:28:52;;;;;;;9.60;4.55;;;-4.00;99.90;;;;;;4144020;28;20044;-68
2024/01/09 04:30:53;;;;;;;12.43;4.63;;;-4.00;99.90;;;;;;4128854;28;20039;-67
2024/01/09 04:32:54;;;;;;;10.10;4.82;;;-4.00;99.90;;;;;;4146261;28;20041;-68
2024/01/09 04:34:54;;;;;;;10.15;4.65;;;-4.00;99.90;;;;;;4142959;28;20030;-68
2024/01/09 04:36:55;;;;;;;13.02;5.18;;;-4.00;99.90;;;;;;4144639;28;20444;-68
2024/01/09 04:39:00;;;;;;;11.13;4.43;;;-4.00;99.90;;;;;;4145795;28;20042;-67
2024/01/09 04:41:00;;;;;;;12.00;5.35;;;-4.00;99.90;;;;;;4143837;28;20108;-67
2024/01/09 04:43:01;;;;;;;12.68;4.82;;;-4.10;99.90;;;;;;4144053;28;20041;-67
2024/01/09 04:45:02;;;;;;;14.98;5.00;;;-4.00;99.90;;;;;;4140224;28;20128;-68
2024/01/09 04:47:02;;;;;;;15.98;5.70;;;-4.10;99.90;;;;;;4134445;28;20177;-67
2024/01/09 04:49:04;;;;;;;12.02;5.45;;;-4.10;99.90;;;;;;4132151;28;20145;-68
2024/01/09 04:51:05;;;;;;;11.57;4.57;;;-4.10;99.90;;;;;;4127237;28;20545;-67
2024/01/09 04:53:06;;;;;;;11.55;5.22;;;-4.10;99.90;;;;;;4145558;28;20030;-67
2024/01/09 04:55:07;;;;;;;15.70;4.95;;;-4.10;99.90;;;;;;4142548;28;20034;-67
2024/01/09 04:57:08;;;;;;;11.70;4.97;;;-4.00;99.90;;;;;;4145152;28;20482;-67
2024/01/09 04:59:08;;;;;;;10.70;5.50;;;-4.10;99.90;;;;;;4139763;28;20026;-68
2024/01/09 05:01:13;;;;;;;10.07;4.38;;;-4.00;99.90;;;;;;4130683;28;20065;-68
2024/01/09 05:03:13;;;;;;;14.55;5.85;;;-4.00;99.90;;;;;;4145033;28;20371;-67
2024/01/09 05:05:14;;;;;;;12.65;5.20;;;-4.10;99.90;;;;;;4141712;28;20100;-67
2024/01/09 05:07:15;;;;;;;10.73;5.28;;;-4.00;99.90;;;;;;4145091;28;20049;-67
2024/01/09 05:09:15;;;;;;;12.45;5.20;;;-4.10;99.90;;;;;;4137189;28;20069;-67
2024/01/09 05:11:16;;;;;;;13.30;5.00;;;-4.10;99.90;;;;;;4134318;28;20037;-67
2024/01/09 05:13:16;;;;;;;13.18;5.80;;;-4.10;99.90;;;;;;4139301;28;20046;-67
2024/01/09 05:15:17;;;;;;;9.80;4.72;;;-4.10;99.90;;;;;;4141739;28;20042;-67
2024/01/09 05:17:17;;;;;;;12.45;4.70;;;-4.10;99.90;;;;;;4140447;28;20453;-67
2024/01/09 05:19:18;;;;;;;13.35;5.30;;;-4.10;99.90;;;;;;4139459;28;20042;-67
2024/01/09 05:21:19;;;;;;;11.82;5.20;;;-4.10;99.90;;;;;;4138053;28;20502;-67
2024/01/09 05:23:19;;;;;;;12.02;4.90;;;-4.10;99.90;;;;;;4141323;28;20045;-67
2024/01/09 05:25:20;;;;;;;10.10;5.07;;;-4.10;99.90;;;;;;4133386;28;20040;-66
2024/01/09 05:27:20;;;;;;;10.30;4.45;;;-4.20;99.90;;;;;;4145016;28;20088;-67
2024/01/09 05:29:21;;;;;;;9.80;4.40;;;-4.10;99.90;;;;;;4141001;28;20038;-67
2024/01/09 05:31:23;;;;;;;11.60;5.28;;;-4.10;99.90;;;;;;4144160;28;20057;-64
2024/01/09 05:33:23;;;;;;;10.77;4.85;;;-4.20;99.90;;;;;;4146171;28;20096;-65
2024/01/09 05:35:24;;;;;;;13.07;5.88;;;-4.20;99.90;;;;;;4142324;28;20042;-65
2024/01/09 05:37:25;;;;;;;9.05;4.50;;;-4.20;99.90;;;;;;4144561;28;20105;-65
2024/01/09 05:39:25;;;;;;;14.23;5.43;;;-4.20;99.90;;;;;;4135471;28;20498;-66
2024/01/09 05:41:26;;;;;;;11.52;5.10;;;-4.20;99.90;;;;;;4138320;28;20540;-66
2024/01/09 05:43:26;;;;;;;11.95;4.85;;;-4.20;99.90;;;;;;4138821;28;20030;-65
2024/01/09 05:45:27;;;;;;;10.57;5.05;;;-4.20;99.90;;;;;;4138849;28;20038;-66
2024/01/09 05:47:27;;;;;;;11.55;4.82;;;-4.20;99.90;;;;;;4140867;28;20080;-67
2024/01/09 05:49:28;;;;;;;11.43;4.60;;;-4.20;99.90;;;;;;4141961;28;20371;-66
2024/01/09 05:51:28;;;;;;;13.57;5.38;;;-4.10;99.90;;;;;;4140657;28;20034;-66
2024/01/09 05:53:29;;;;;;;13.25;5.40;;;-4.20;99.90;;;;;;4144203;28;20029;-66
2024/01/09 05:55:30;;;;;;;10.80;5.15;;;-4.20;99.90;;;;;;4135339;28;20038;-65
2024/01/09 05:57:31;;;;;;;14.50;5.38;;;-4.20;99.90;;;;;;4135480;28;20116;-65
2024/01/09 05:59:31;;;;;;;11.20;5.20;;;-4.20;99.90;;;;;;4135547;28;20531;-66
2024/01/09 06:01:32;;;;;;;12.77;5.05;;;-4.20;99.90;;;;;;4140731;28;20066;-65
2024/01/09 06:03:32;;;;;;;12.13;5.13;;;-4.20;99.90;;;;;;4136352;28;20034;-65
2024/01/09 06:05:33;;;;;;;11.85;5.35;;;-4.30;99.90;;;;;;4128609;28;20026;-65
2024/01/09 06:07:33;;;;;;;12.40;5.13;;;-4.20;99.90;;;;;;4152765;28;20399;-65
2024/01/09 06:09:34;;;;;;;11.10;5.22;;;-4.20;99.90;;;;;;4136891;28;20517;-64
2024/01/09 06:11:35;;;;;;;17.63;5.28;;;-4.20;99.90;;;;;;4139928;28;20490;-65
2024/01/09 06:13:35;;;;;;;12.65;4.65;;;-4.20;99.90;;;;;;4139540;28;20486;-65
2024/01/09 06:15:36;;;;;;;11.73;5.30;;;-4.30;99.90;;;;;;4127853;28;20049;-65
2024/01/09 06:17:37;;;;;;;13.98;4.78;;;-4.20;99.90;;;;;;4138705;28;20033;-65
2024/01/09 06:19:37;;;;;;;12.45;5.22;;;-4.30;99.90;;;;;;4138913;28;20034;-65
2024/01/09 06:21:38;;;;;;;13.75;5.30;;;-4.30;99.90;;;;;;4139673;28;20035;-65
2024/01/09 06:23:38;;;;;;;12.02;5.40;;;-4.30;99.90;;;;;;4133115;28;20456;-65
2024/01/09 06:25:39;;;;;;;16.63;5.20;;;-4.30;99.90;;;;;;4138208;28;20062;-65
2024/01/09 06:27:40;;;;;;;10.88;5.07;;;-4.30;99.90;;;;;;4140352;28;20414;-65
2024/01/09 06:29:40;;;;;;;12.80;5.78;;;-4.30;99.90;;;;;;4137720;28;20046;-65
2024/01/09 06:31:41;;;;;;;17.02;4.90;;;-4.30;99.90;;;;;;4137862;28;20052;-65
2024/01/09 06:33:41;;;;;;;9.65;4.75;;;-4.40;99.90;;;;;;4139770;28;20042;-65
2024/01/09 06:35:42;;;;;;;12.85;4.88;;;-4.30;99.90;;;;;;4138049;28;20065;-65
2024/01/09 06:37:43;;;;;;;15.30;5.30;;;-4.30;99.90;;;;;;4138982;28;20488;-65
2024/01/09 06:39:44;;;;;;;12.37;5.70;;;-4.40;99.90;;;;;;4137611;28;20117;-66
2024/01/09 06:41:45;;;;;;;13.23;5.38;;;-4.40;99.90;;;;;;4139489;28;20160;-66
2024/01/09 06:43:45;;;;;;;11.10;5.43;;;-4.40;99.90;;;;;;4136080;28;20034;-68
2024/01/09 06:45:46;;;;;;;10.90;5.05;;;-4.40;99.90;;;;;;4137258;28;20065;-66
2024/01/09 06:47:47;;;;;;;11.45;5.10;;;-4.40;99.90;;;;;;4140276;28;20092;-67
2024/01/09 06:49:48;;;;;;;12.05;5.65;;;-4.40;99.90;;;;;;4145710;28;20037;-66
2024/01/09 06:51:49;;;;;;;12.15;5.53;;;-4.40;99.90;;;;;;4144898;28;20041;-67
2024/01/09 06:53:49;;;;;;;13.32;5.53;;;-4.40;99.90;;;;;;4143526;28;20030;-66
2024/01/09 06:55:50;;;;;;;12.50;5.70;;;-4.40;99.90;;;;;;4140005;28;20026;-67
2024/01/09 06:57:50;;;;;;;10.95;5.18;;;-4.40;99.90;;;;;;4144504;28;20041;-66
2024/01/09 06:59:53;;;;;;;11.27;5.05;;;-4.40;99.90;;;;;;4156548;28;20037;-67
2024/01/09 07:01:54;;;;;;;13.00;5.85;;;-4.40;99.90;;;;;;4142763;28;20413;-67
2024/01/09 07:03:55;;;;;;;11.60;5.22;;;-4.40;99.90;;;;;;4144067;28;20042;-67
2024/01/09 07:05:55;;;;;;;15.70;5.57;;;-4.40;99.90;;;;;;4139572;28;20045;-67
2024/01/09 07:07:56;;;;;;;11.35;5.22;;;-4.40;99.90;;;;;;4139922;28;20613;-67
2024/01/09 07:09:56;;;;;;;12.38;5.20;;;-4.40;99.90;;;;;;4136265;28;20037;-67
2024/01/09 07:11:57;;;;;;;10.73;5.13;;;-4.40;99.90;;;;;;4138515;28;20482;-66
2024/01/09 07:13:58;;;;;;;13.98;5.55;;;-4.40;99.90;;;;;;4157507;28;20120;-67
2024/01/09 07:15:58;;;;;;;11.10;5.47;;;-4.40;99.90;;;;;;4143282;28;20057;-67
2024/01/09 07:17:59;;;;;;;16.23;7.55;;;-4.40;99.90;;;;;;4144047;28;20038;-68
2024/01/09 07:20:00;;;;;;;22.42;10.00;;;-4.40;99.90;;;;;;4144584;28;20052;-67
2024/01/09 07:22:00;;;;;;;22.45;9.40;;;-4.40;99.90;;;;;;4143813;28;20041;-67
2024/01/09 07:24:01;;;;;;;22.20;9.00;;;-4.40;99.90;;;;;;4144117;28;20045;-67
2024/01/09 07:26:02;;;;;;;19.73;8.98;;;-4.40;99.90;;;;;;4142814;28;20129;-66
2024/01/09 07:28:02;;;;;;;19.55;9.05;;;-4.40;99.90;;;;;;4144172;28;20053;-64
2024/01/09 07:30:03;;;;;;;15.20;6.50;;;-4.40;99.90;;;;;;4143766;28;20152;-65
2024/01/09 07:32:04;;;;;;;13.10;6.05;;;-4.40;99.90;;;;;;4143755;28;20096;-64
2024/01/09 07:34:05;;;;;;;11.02;4.82;;;-4.40;99.90;;;;;;4141964;28;20081;-64
2024/01/09 07:36:06;;;;;;;12.38;5.40;;;-4.40;99.90;;;;;;4146661;28;20040;-64
2024/01/09 07:38:07;;;;;;;11.80;5.50;;;-4.40;99.90;;;;;;4147449;28;20037;-64
2024/01/09 07:40:08;;;;;;;15.48;6.20;;;-4.30;99.90;;;;;;4146613;28;20080;-66
2024/01/09 07:42:08;;;;;;;12.80;5.88;;;-4.40;99.90;;;;;;4146928;28;20041;-64
2024/01/09 07:44:09;;;;;;;13.55;5.13;;;-4.30;99.90;;;;;;4142470;28;20045;-64
2024/01/09 07:46:13;;;;;;;10.63;4.93;;;-4.20;99.90;;;;;;4146186;28;20502;-64
2024/01/09 07:48:13;;;;;;;11.35;5.20;;;-4.20;99.90;;;;;;4141051;28;20045;-64
2024/01/09 07:50:14;;;;;;;9.68;5.15;;;-4.20;99.90;;;;;;4146217;28;20065;-64
2024/01/09 07:52:15;;;;;;;12.63;5.93;;;-4.20;99.90;;;;;;4145953;28;20034;-70
2024/01/09 07:54:15;;;;;;;14.18;5.38;;;-4.20;99.90;;;;;;4148664;28;20125;-70
2024/01/09 07:56:17;;;;;;;10.82;4.88;;;-4.20;99.90;;;;;;4147604;28;20037;-70
2024/01/09 07:58:18;;;;;;;11.77;5.75;;;-4.20;99.90;;;;;;4144373;28;20045;-70
2024/01/09 08:00:18;;;;;;;12.95;5.80;;;-4.20;99.90;;;;;;4145942;28;20474;-70
2024/01/09 08:02:19;;;;;;;13.20;5.85;;;-4.20;99.90;;;;;;4161929;28;20116;-70
2024/01/09 08:04:22;;;;;;;12.82;6.10;;;-4.30;99.90;;;;;;4146121;28;20099;-70
2024/01/09 08:06:23;;;;;;;15.10;6.25;;;-4.30;99.90;;;;;;4144215;28;20053;-69
2024/01/09 08:08:23;;;;;;;12.35;5.22;;;-4.30;99.90;;;;;;4146301;28;20497;-70
2024/01/09 08:10:24;;;;;;;10.13;5.60;;;-4.20;99.90;;;;;;4143168;28;20042;-70
2024/01/09 08:12:25;;;;;;;11.60;5.68;;;-4.30;99.90;;;;;;4143188;28;20022;-70
2024/01/09 08:14:25;;;;;;;13.00;5.53;;;-4.10;99.90;;;;;;4142664;28;20490;-69
2024/01/09 08:16:27;;;;;;;12.85;6.15;;;-4.10;99.90;;;;;;4146725;28;20041;-70
2024/01/09 08:18:29;;;;;;;10.70;4.82;;;-3.90;99.90;;;;;;4144081;28;20033;-69
2024/01/09 08:20:30;;;;;;;10.48;4.97;;;-3.70;99.90;;;;;;4143698;28;20050;-70
2024/01/09 08:22:30;;;;;;;11.90;5.32;;;-3.40;99.90;;;;;;4137270;28;20092;-70
2024/01/09 08:24:32;;;;;;;12.88;5.60;;;-3.20;99.90;;;;;;4144487;28;20033;-70
2024/01/09 08:26:32;;;;;;;13.90;5.75;;;-2.90;99.90;;;;;;4139578;28;20528;-69
2024/01/09 08:28:33;;;;;;;10.98;5.15;;;-2.70;99.90;;;;;;4142651;28;20022;-70
2024/01/09 08:30:34;;;;;;;14.00;6.07;;;-2.50;99.90;;;;;;4143938;28;20093;-70
2024/01/09 08:32:36;;;;;;;10.05;5.15;;;-2.20;99.90;;;;;;4146487;28;20556;-69
2024/01/09 08:34:37;;;;;;;11.75;5.63;;;-2.00;99.90;;;;;;4143928;28;20042;-69
2024/01/09 08:36:38;;;;;;;12.68;5.45;;;-2.10;99.90;;;;;;4144315;28;20057;-70
2024/01/09 08:38:38;;;;;;;15.35;7.00;;;-2.40;99.90;;;;;;4142132;28;20497;-69
2024/01/09 08:40:39;;;;;;;13.95;6.22;;;-2.50;99.90;;;;;;4140682;28;20478;-70
2024/01/09 08:42:39;;;;;;;10.70;5.43;;;-2.60;99.90;;;;;;4141927;28;20041;-70
2024/01/09 08:44:40;;;;;;;12.85;5.88;;;-2.60;99.90;;;;;;4145312;28;20034;-70
2024/01/09 08:46:41;;;;;;;11.23;5.50;;;-2.80;99.90;;;;;;4144457;28;20030;-69
2024/01/09 08:48:41;;;;;;;13.77;5.72;;;-2.80;99.90;;;;;;4145798;28;20049;-70
2024/01/09 08:50:42;;;;;;;13.13;6.82;;;-2.80;99.90;;;;;;4145008;28;20390;-70
2024/01/09 08:52:43;;;;;;;12.88;6.22;;;-2.80;99.90;;;;;;4145962;28;20092;-69
2024/01/09 08:54:44;;;;;;;14.15;6.10;;;-2.90;99.90;;;;;;4143075;28;20030;-69
2024/01/09 08:56:44;;;;;;;13.15;6.10;;;-2.90;99.90;;;;;;4135429;28;20061;-69
2024/01/09 08:58:45;;;;;;;11.60;6.20;;;-2.80;99.90;;;;;;4145979;28;20152;-69
2024/01/09 09:00:45;;;;;;;12.02;5.78;;;-2.90;99.90;;;;;;4144868;28;20109;-69
2024/01/09 09:02:47;;;;;;;16.33;6.68;;;-3.00;99.90;;;;;;4146011;28;20034;-64
2024/01/09 09:04:47;;;;;;;13.38;6.90;;;-3.00;99.90;;;;;;4141469;28;20034;-63
2024/01/09 09:06:48;;;;;;;15.00;6.22;;;-3.10;99.90;;;;;;4145079;28;20045;-63
2024/01/09 09:08:48;;;;;;;14.68;6.43;;;-3.00;99.90;;;;;;4145679;28;20048;-63
2024/01/09 09:10:49;;;;;;;14.70;6.20;;;-3.00;99.90;;;;;;4144818;28;20367;-64
2024/01/09 09:12:50;;;;;;;13.13;6.05;;;-3.10;99.90;;;;;;4144729;28;20025;-63
2024/01/09 09:14:50;;;;;;;14.80;6.15;;;-3.10;99.90;;;;;;4146841;28;20888;-64
2024/01/09 09:16:51;;;;;;;13.20;6.22;;;-3.00;99.90;;;;;;4145859;28;20378;-64
2024/01/09 09:18:52;;;;;;;11.85;6.05;;;-2.90;99.90;;;;;;4146192;28;20034;-63
2024/01/09 09:20:53;;;;;;;13.32;6.38;;;-2.80;99.90;;;;;;4145447;28;20029;-65
2024/01/09 09:22:53;;;;;;;11.23;5.70;;;-2.80;99.90;;;;;;4159128;28;20552;-64
2024/01/09 09:24:54;;;;;;;13.82;5.93;;;-2.70;99.90;;;;;;4163027;28;20485;-64
2024/01/09 09:26:55;;;;;;;13.98;5.53;;;-2.70;99.90;;;;;;4162354;28;20117;-64
2024/01/09 09:28:55;;;;;;;14.98;6.53;;;-2.60;99.90;;;;;;4152872;28;20040;-64
2024/01/09 09:30:56;;;;;;;11.07;5.38;;;-2.50;99.90;;;;;;4160919;28;20080;-64
2024/01/09 09:32:58;;;;;;;18.27;6.07;;;-2.40;99.90;;;;;;4145901;28;20042;-63
2024/01/09 09:34:58;;;;;;;10.40;5.70;;;-2.20;99.90;;;;;;4161264;28;20030;-63
2024/01/09 09:36:59;;;;;;;13.30;5.82;;;-2.10;99.90;;;;;;4145688;28;20030;-64
2024/01/09 09:39:00;;;;;;;11.30;5.43;;;-1.90;99.90;;;;;;4144874;28;20030;-64
2024/01/09 09:41:07;;;;;;;10.15;5.32;;;-1.70;99.90;;;;;;4143375;28;20113;-64
2024/01/09 09:43:14;;;;;;;9.93;5.10;;;-1.60;99.90;;;;;;4144945;28;20077;-62
2024/01/09 09:45:19;;;;;;;10.43;5.25;;;-1.50;99.90;;;;;;4142943;28;20072;-63
2024/01/09 09:47:23;;;;;;;9.82;5.10;;;-1.50;99.90;;;;;;4144280;28;20466;-63
2024/01/09 09:49:24;;;;;;;11.05;6.18;;;-1.40;99.90;;;;;;4129585;28;20046;-63
2024/01/09 09:51:25;;;;;;;12.85;7.63;;;-1.40;99.90;;;;;;4137554;28;20037;-63
2024/01/09 09:53:28;;;;;;;12.00;5.93;;;-1.50;99.90;;;;;;4146073;28;20033;-62
2024/01/09 09:55:29;;;;;;;11.63;5.65;;;-1.40;99.90;;;;;;4145753;28;20395;-63
2024/01/09 09:57:29;;;;;;;12.60;5.38;;;-1.30;99.90;;;;;;4145310;28;20041;-63
2024/01/09 09:59:30;;;;;;;12.30;5.38;;;-1.30;99.90;;;;;;4145989;28;20038;-63
2024/01/09 10:01:31;;;;;;;8.13;4.75;;;-1.20;99.90;;;;;;4144970;28;20117;-63
2024/01/09 10:03:35;;;;;;;10.18;5.38;;;-1.20;99.90;;;;;;4145015;28;20026;-65
2024/01/09 10:05:42;;;;;;;11.63;5.85;;;-1.10;99.90;;;;;;4145061;28;20037;-62
2024/01/09 10:07:47;;;;;;;10.77;5.00;;;-1.10;99.90;;;;;;4146263;28;20030;-62
2024/01/09 10:09:52;;;;;;;10.27;5.35;;;-0.90;99.90;;;;;;4145607;28;20026;-62
2024/01/09 10:11:52;;;;;;;11.20;5.50;;;-1.10;99.90;;;;;;4143940;28;20065;-79
2024/01/09 10:13:55;;;;;;;16.23;5.78;;;-1.20;99.90;;;;;;4144393;28;20026;-69
2024/01/09 10:15:59;;;;;;;9.98;5.20;;;-1.30;99.90;;;;;;4145402;28;20026;-77
2024/01/09 10:18:01;;;;;;;11.18;5.30;;;-1.30;99.90;;;;;;4146329;28;20105;-79
2024/01/09 10:20:04;;;;;;;10.63;5.15;;;-1.40;99.90;;;;;;4146112;28;20037;-76
2024/01/09 10:22:05;;;;;;;10.30;5.45;;;-1.40;99.90;;;;;;4144667;28;20034;-77
2024/01/09 10:24:07;;;;;;;10.40;5.50;;;-1.50;99.90;;;;;;4145795;28;20382;-77